Time;durP1;ratioP1;P1;durP2;ratioP2;P2;SDS_P1;SDS_P2;PMS_P1;PMS_P2;Temp;Humidity;BMP_temperature;BMP_pressure;BME280_temperature;BME280_humidity;BME280_pressure;Samples;Min_cycle;Max_cycle;Signal;HPM_P1;HPM_P2
2021/01/21 00:02:57;;;;;;;48.55;21.12;;;;;;;-1.53;100.00;98333.05;4362452;80;44419;-77
2021/01/21 00:09:01;;;;;;;38.88;18.20;;;;;;;-1.21;100.00;98329.95;4354400;80;44451;-76
2021/01/21 00:15:04;;;;;;;37.30;17.90;;;;;;;-1.25;100.00;98328.14;4341859;81;44475;-79
2021/01/21 00:21:06;;;;;;;36.53;17.05;;;;;;;-1.27;100.00;98326.18;4348649;81;44432;-79
2021/01/21 00:27:08;;;;;;;39.08;18.87;;;;;;;-1.55;100.00;98316.91;4336235;80;43671;-80
2021/01/21 00:33:12;;;;;;;44.15;18.80;;;;;;;-1.56;100.00;98305.20;4359122;80;43729;-80
2021/01/21 00:39:14;;;;;;;42.25;20.45;;;;;;;-1.67;100.00;98306.38;4340540;80;43730;-79
2021/01/21 00:45:16;;;;;;;48.78;21.77;;;;;;;-1.70;100.00;98302.30;4359800;80;45615;-79
2021/01/21 00:51:19;;;;;;;53.40;23.87;;;;;;;-1.50;100.00;98305.84;4351325;80;44132;-79
2021/01/21 00:57:24;;;;;;;52.98;22.85;;;;;;;-1.46;100.00;98305.82;4352499;80;28623;-79
2021/01/21 01:03:27;;;;;;;46.77;21.65;;;;;;;-1.56;100.00;98303.89;4314408;80;43760;-77
2021/01/21 01:09:30;;;;;;;44.98;19.60;;;;;;;-1.69;100.00;98297.34;4349488;80;43805;-77
2021/01/21 01:15:33;;;;;;;36.05;17.87;;;;;;;-1.92;100.00;98285.39;4353999;81;44463;-77
2021/01/21 01:21:36;;;;;;;48.25;21.80;;;;;;;-1.98;100.00;98281.61;4347529;80;44451;-77
2021/01/21 01:27:41;;;;;;;45.20;20.72;;;;;;;-1.93;100.00;98273.20;4337839;81;43730;-76
2021/01/21 01:33:44;;;;;;;44.95;20.52;;;;;;;-1.98;100.00;98264.49;4352089;81;43857;-77
2021/01/21 01:39:46;;;;;;;47.88;21.65;;;;;;;-2.11;100.00;98268.16;4349837;80;43812;-77
2021/01/21 01:45:50;;;;;;;50.08;21.85;;;;;;;-1.78;100.00;98272.48;4358234;80;43597;-77
2021/01/21 01:51:53;;;;;;;49.35;22.27;;;;;;;-1.88;100.00;98259.52;4355840;80;44424;-77
2021/01/21 01:57:56;;;;;;;51.23;23.18;;;;;;;-1.84;100.00;98256.37;4384038;80;44028;-78
2021/01/21 02:04:00;;;;;;;50.88;21.62;;;;;;;-2.00;100.00;98253.79;4364521;80;43595;-80
2021/01/21 02:10:15;;;;;;;52.73;22.85;;;;;;;-2.16;100.00;98253.34;4390890;79;85309;-79
2021/01/21 02:16:45;;;;;;;59.58;26.90;;;;;;;-2.23;100.00;98253.19;4293529;81;43490;-77
2021/01/21 02:23:06;;;;;;;77.17;30.37;;;;;;;-2.01;100.00;98254.78;4298877;80;43656;-78
2021/01/21 02:29:16;;;;;;;68.10;29.67;;;;;;;-2.06;100.00;98258.44;4322922;80;44105;-78
2021/01/21 02:35:22;;;;;;;56.02;24.85;;;;;;;-1.96;100.00;98257.23;4302996;81;44145;-78
2021/01/21 02:41:26;;;;;;;54.40;23.70;;;;;;;-2.14;100.00;98260.09;4321810;81;44101;-78
2021/01/21 02:47:28;;;;;;;60.45;24.65;;;;;;;-2.28;100.00;98264.73;4336269;81;43496;-78
2021/01/21 02:53:32;;;;;;;56.10;24.95;;;;;;;-2.25;100.00;98259.12;4350062;80;44135;-77
2021/01/21 02:59:39;;;;;;;45.63;20.80;;;;;;;-2.49;100.00;98255.55;4297796;81;43756;-77
2021/01/21 03:05:52;;;;;;;47.80;20.85;;;;;;;-2.61;100.00;98252.42;4306504;81;43806;-77
2021/01/21 03:12:22;;;;;;;59.93;25.72;;;;;;;-2.63;100.00;98254.89;4331809;81;41676;-78
2021/01/21 03:18:25;;;;;;;48.60;21.82;;;;;;;-2.52;100.00;98263.28;4299251;81;44491;-79
2021/01/21 03:24:29;;;;;;;56.20;24.27;;;;;;;-2.78;100.00;98255.56;4324594;82;44115;-78
2021/01/21 03:30:33;;;;;;;56.13;24.45;;;;;;;-2.68;100.00;98264.11;4323409;82;44088;-79
2021/01/21 03:36:37;;;;;;;58.78;26.07;;;;;;;-2.63;100.00;98265.41;4308582;82;43234;-80
2021/01/21 03:42:39;;;;;;;57.78;23.18;;;;;;;-2.69;100.00;98261.16;4313749;82;44104;-81
2021/01/21 03:48:59;;;;;;;54.40;24.10;;;;;;;-2.54;100.00;98268.38;4491460;77;84889;-81
2021/01/21 03:55:10;;;;;;;56.70;23.75;;;;;;;-2.74;100.00;98266.08;4320886;81;44098;-78
2021/01/21 04:01:13;;;;;;;56.30;23.77;;;;;;;-2.91;100.00;98254.72;4325927;81;44081;-78
2021/01/21 04:07:15;;;;;;;53.85;23.73;;;;;;;-2.86;100.00;98264.76;4300425;82;44093;-77
2021/01/21 04:13:18;;;;;;;57.35;24.77;;;;;;;-3.06;100.00;98255.05;4234009;83;44135;-77
2021/01/21 04:19:22;;;;;;;54.42;23.25;;;;;;;-3.01;100.00;98252.27;4244241;83;44108;-78
2021/01/21 04:25:24;;;;;;;63.17;25.77;;;;;;;-3.02;100.00;98244.05;4306869;80;42862;-78
2021/01/21 04:31:28;;;;;;;60.58;25.50;;;;;;;-3.03;100.00;98252.90;4212606;81;42786;-77
2021/01/21 04:37:32;;;;;;;63.30;25.95;;;;;;;-3.18;100.00;98246.14;4249774;83;43136;-79
2021/01/21 04:43:38;;;;;;;48.55;22.22;;;;;;;-3.21;100.00;98238.58;4331677;81;28657;-80
2021/01/21 04:49:43;;;;;;;56.42;24.65;;;;;;;-3.27;100.00;98239.25;4338070;82;44402;-77
2021/01/21 04:55:55;;;;;;;60.30;24.20;;;;;;;-3.50;100.00;98255.13;4293324;82;28655;-79
2021/01/21 05:02:10;;;;;;;52.67;23.40;;;;;;;-3.33;100.00;98240.72;4361562;79;76217;-78
2021/01/21 05:08:15;;;;;;;49.58;23.65;;;;;;;-3.54;100.00;98245.92;4306355;81;28637;-80
2021/01/21 05:14:19;;;;;;;47.75;22.40;;;;;;;-3.63;100.00;98242.94;4316482;80;28580;-80
2021/01/21 05:20:24;;;;;;;50.12;22.42;;;;;;;-3.60;100.00;98243.92;4325997;81;43989;-80
2021/01/21 05:26:39;;;;;;;51.58;21.65;;;;;;;-3.42;100.00;98237.73;4453957;79;85380;-79
2021/01/21 05:32:45;;;;;;;53.90;21.62;;;;;;;-3.61;100.00;98239.65;4304427;81;44081;-79
2021/01/21 05:39:08;;;;;;;53.42;22.75;;;;;;;-3.54;100.00;98242.46;4466328;79;85548;-80
2021/01/21 05:45:29;;;;;;;56.58;22.50;;;;;;;-3.47;100.00;98246.58;4321743;80;44103;-77
2021/01/21 05:51:46;;;;;;;57.93;22.87;;;;;;;-3.25;100.00;98245.97;4640045;76;85483;-78
2021/01/21 05:57:52;;;;;;;55.93;22.80;;;;;;;-3.59;100.00;98252.61;4495488;79;28616;-77
2021/01/21 06:03:57;;;;;;;48.87;21.07;;;;;;;-3.23;100.00;98244.02;4511051;78;28566;-78
2021/01/21 06:09:59;;;;;;;54.20;22.05;;;;;;;-3.68;100.00;98255.23;4520381;78;44097;-78
2021/01/21 06:16:06;;;;;;;51.45;21.37;;;;;;;-3.52;100.00;98257.09;4513875;78;44046;-79
2021/01/21 06:22:11;;;;;;;50.92;20.82;;;;;;;-3.42;100.00;98261.39;4523392;78;44409;-81
2021/01/21 06:28:27;;;;;;;47.62;18.85;;;;;;;-3.75;100.00;98265.20;4486113;78;43779;-79
2021/01/21 06:34:37;;;;;;;45.95;20.10;;;;;;;-3.49;100.00;98253.30;4505286;78;28611;-82
2021/01/21 06:40:46;;;;;;;49.33;19.92;;;;;;;-3.52;100.00;98257.57;4520493;77;44499;-76
2021/01/21 06:46:51;;;;;;;44.58;21.33;;;;;;;-3.69;100.00;98257.53;4481779;78;43732;-76
2021/01/21 06:53:20;;;;;;;51.53;20.77;;;;;;;-3.51;100.00;98261.84;4483608;79;43577;-75
2021/01/21 06:59:54;;;;;;;43.33;20.62;;;;;;;-3.50;100.00;98264.32;4207094;84;43783;-76
2021/01/21 07:06:01;;;;;;;44.63;20.27;;;;;;;-3.65;100.00;98266.73;4198402;83;28646;-76
2021/01/21 07:12:05;;;;;;;49.70;21.33;;;;;;;-3.36;100.00;98262.88;4198539;83;44474;-76
2021/01/21 07:18:21;;;;;;;42.98;20.08;;;;;;;-3.34;100.00;98265.84;4204636;83;43793;-76
2021/01/21 07:24:27;;;;;;;54.13;21.97;;;;;;;-3.20;100.00;98263.89;4195524;84;44104;-77
2021/01/21 07:30:33;;;;;;;51.73;22.52;;;;;;;-3.08;100.00;98249.44;4197438;83;44032;-78
2021/01/21 07:36:35;;;;;;;50.90;21.75;;;;;;;-2.86;100.00;98267.39;4218144;83;43879;-76
2021/01/21 07:42:43;;;;;;;47.35;21.23;;;;;;;-2.83;100.00;98267.89;4230109;83;43772;-76
2021/01/21 07:48:47;;;;;;;51.33;22.07;;;;;;;-2.62;100.00;98271.84;4210725;83;43760;-76
2021/01/21 07:54:49;;;;;;;47.75;21.35;;;;;;;-2.59;100.00;98250.95;4201855;81;44132;-76
2021/01/21 08:00:58;;;;;;;50.15;21.60;;;;;;;-2.19;100.00;98243.95;4180992;83;44448;-76
2021/01/21 08:07:01;;;;;;;44.05;20.23;;;;;;;-1.90;100.00;98241.23;4187660;83;43733;-77
2021/01/21 08:13:07;;;;;;;42.53;20.08;;;;;;;-1.64;100.00;98238.84;4188959;84;43761;-76
2021/01/21 08:19:10;;;;;;;47.62;20.70;;;;;;;-1.39;100.00;98245.81;4172735;83;43753;-77
2021/01/21 08:32:18;;;;;;;50.20;22.05;;;;;;;-0.81;100.00;98233.05;4401618;80;255377;-77
2021/01/21 08:38:28;;;;;;;49.30;20.20;;;;;;;-0.86;100.00;98221.70;4313526;81;44103;-76
2021/01/21 08:44:31;;;;;;;50.60;21.40;;;;;;;-0.56;100.00;98224.91;4249136;83;43617;-77
2021/01/21 08:50:40;;;;;;;46.53;21.37;;;;;;;-0.41;100.00;98221.48;4241235;82;44067;-77
2021/01/21 08:56:42;;;;;;;46.68;21.62;;;;;;;-0.14;100.00;98230.61;4305284;81;43812;-77
2021/01/21 09:02:46;;;;;;;44.58;20.27;;;;;;;0.03;100.00;98237.02;4291709;81;43739;-77
2021/01/21 09:08:58;;;;;;;48.02;23.10;;;;;;;0.23;100.00;98227.53;4279176;80;28600;-76
2021/01/21 09:15:07;;;;;;;49.10;22.30;;;;;;;0.40;100.00;98214.91;4256725;82;44505;-76
2021/01/21 09:21:17;;;;;;;52.35;23.52;;;;;;;0.61;100.00;98205.91;4219701;82;44072;-79
2021/01/21 09:27:19;;;;;;;48.45;22.48;;;;;;;0.77;100.00;98197.70;4289610;81;44035;-76
2021/01/21 09:33:21;;;;;;;49.38;23.00;;;;;;;1.02;100.00;98206.61;4282005;81;44429;-78
2021/01/21 09:39:23;;;;;;;51.18;23.70;;;;;;;1.16;100.00;98204.91;4286254;81;28555;-78
2021/01/21 09:45:27;;;;;;;48.87;23.83;;;;;;;1.38;100.00;98198.25;4290902;81;28667;-77
2021/01/21 09:51:29;;;;;;;54.08;24.12;;;;;;;1.64;100.00;98198.11;4260773;81;44164;-76
2021/01/21 09:57:32;;;;;;;49.55;23.77;;;;;;;1.86;100.00;98192.73;4223245;82;28593;-76
2021/01/21 10:03:34;;;;;;;53.60;24.35;;;;;;;2.05;100.00;98184.59;4212981;83;28643;-76
2021/01/21 10:09:37;;;;;;;54.53;24.10;;;;;;;2.24;100.00;98181.70;4215937;83;28617;-74
2021/01/21 10:15:40;;;;;;;52.23;24.90;;;;;;;2.39;100.00;98189.52;4220960;83;28616;-76
2021/01/21 10:21:42;;;;;;;51.60;22.90;;;;;;;2.61;100.00;98185.39;4296766;82;28643;-81
2021/01/21 10:27:44;;;;;;;52.43;24.98;;;;;;;2.77;100.00;98181.55;4298374;82;28563;-77
2021/01/21 10:33:46;;;;;;;50.43;22.50;;;;;;;3.03;100.00;98176.78;4288857;82;28571;-82
2021/01/21 10:39:49;;;;;;;48.73;23.35;;;;;;;3.28;100.00;98164.23;4303689;81;28592;-77
2021/01/21 10:45:51;;;;;;;48.70;22.20;;;;;;;3.42;100.00;98154.92;4292731;82;28557;-77
2021/01/21 10:51:56;;;;;;;51.70;25.12;;;;;;;3.59;100.00;98149.98;4207517;84;28564;-81
2021/01/21 10:57:57;;;;;;;48.95;23.87;;;;;;;3.69;100.00;98145.55;4242178;81;28571;-80
2021/01/21 11:03:59;;;;;;;42.05;20.05;;;;;;;3.86;100.00;98144.08;4231316;83;28620;-78
2021/01/21 11:10:03;;;;;;;40.35;20.68;;;;;;;4.02;100.00;98127.36;4248473;83;28582;-76
2021/01/21 11:16:08;;;;;;;39.10;18.87;;;;;;;4.12;100.00;98117.59;4238861;82;28618;-76
2021/01/21 11:22:11;;;;;;;33.28;16.40;;;;;;;4.27;100.00;98109.33;4212243;83;28640;-76
2021/01/21 11:28:13;;;;;;;34.88;16.37;;;;;;;4.45;100.00;98110.77;4221565;83;28570;-75
2021/01/21 11:34:15;;;;;;;42.93;20.92;;;;;;;4.68;100.00;98101.41;4244161;81;28576;-75
2021/01/21 11:40:17;;;;;;;44.05;22.65;;;;;;;4.92;100.00;98093.63;4250687;82;28585;-75
2021/01/21 11:46:20;;;;;;;39.98;19.62;;;;;;;5.05;100.00;98089.22;4246639;81;28664;-76
2021/01/21 11:52:22;;;;;;;39.13;18.15;;;;;;;5.15;100.00;98081.55;4249168;81;28617;-77
2021/01/21 11:58:24;;;;;;;30.68;15.70;;;;;;;5.15;100.00;98081.04;4270789;81;28612;-77
2021/01/21 12:04:27;;;;;;;38.10;19.07;;;;;;;5.19;100.00;98081.42;4259747;81;28687;-78
2021/01/21 12:10:30;;;;;;;40.70;19.12;;;;;;;5.33;100.00;98083.95;4283758;81;28586;-76
2021/01/21 12:16:32;;;;;;;42.03;19.32;;;;;;;5.50;100.00;98078.84;4257203;81;28810;-76
2021/01/21 12:22:35;;;;;;;25.25;13.10;;;;;;;5.62;100.00;98069.60;4244887;83;28610;-76
2021/01/21 12:28:37;;;;;;;31.20;14.55;;;;;;;5.74;100.00;98081.69;4288056;81;28597;-78
2021/01/21 12:34:40;;;;;;;27.48;13.78;;;;;;;5.84;100.00;98073.97;4276408;81;28556;-77
2021/01/21 12:40:43;;;;;;;23.32;11.25;;;;;;;5.87;100.00;98078.84;4320445;81;28606;-77
2021/01/21 12:46:45;;;;;;;18.70;9.58;;;;;;;5.87;100.00;98086.85;4323329;81;28648;-75
2021/01/21 12:52:48;;;;;;;19.90;9.25;;;;;;;5.91;100.00;98081.89;4295228;81;28591;-78
2021/01/21 12:58:50;;;;;;;16.15;8.00;;;;;;;6.03;100.00;98076.62;4215106;83;28589;-75
2021/01/21 13:04:54;;;;;;;14.40;7.70;;;;;;;6.18;100.00;98061.55;4216634;83;28634;-75
2021/01/21 13:10:56;;;;;;;18.52;8.55;;;;;;;6.24;100.00;98053.98;4253789;83;28578;-74
2021/01/21 13:16:58;;;;;;;21.27;9.98;;;;;;;6.25;100.00;98064.44;4247748;82;28596;-75
2021/01/21 13:23:01;;;;;;;26.60;10.98;;;;;;;6.20;100.00;98060.82;4247964;83;28613;-74
2021/01/21 13:29:03;;;;;;;21.77;10.95;;;;;;;6.16;100.00;98064.97;4245354;82;28661;-74
2021/01/21 13:35:08;;;;;;;19.48;9.93;;;;;;;6.11;100.00;98061.64;4253335;83;28656;-75
2021/01/21 13:41:10;;;;;;;27.07;10.05;;;;;;;6.07;100.00;98069.81;4249279;82;28573;-76
2021/01/21 13:47:12;;;;;;;23.55;10.88;;;;;;;5.98;100.00;98083.94;4256211;83;28708;-74
2021/01/21 13:53:14;;;;;;;23.22;10.48;;;;;;;5.89;100.00;98094.11;4249596;83;28604;-74
2021/01/21 13:59:17;;;;;;;20.45;10.55;;;;;;;5.83;100.00;98095.81;4272789;81;28628;-76
2021/01/21 14:05:19;;;;;;;21.33;10.72;;;;;;;5.79;100.00;98103.98;4196236;83;28549;-75
2021/01/21 14:11:22;;;;;;;26.25;11.60;;;;;;;5.75;100.00;98103.31;4211914;83;28626;-76
2021/01/21 14:17:24;;;;;;;26.23;12.40;;;;;;;5.64;100.00;98095.52;4263987;81;28754;-75
2021/01/21 14:23:26;;;;;;;20.27;11.80;;;;;;;5.52;100.00;98096.77;4255208;81;28695;-76
2021/01/21 14:29:28;;;;;;;23.90;11.30;;;;;;;5.35;100.00;98094.70;4262527;81;28689;-73
2021/01/21 14:35:30;;;;;;;21.75;11.20;;;;;;;5.16;100.00;98099.19;4219328;81;28697;-74
2021/01/21 14:41:33;;;;;;;21.65;10.95;;;;;;;5.06;100.00;98111.66;4222570;82;28603;-74
2021/01/21 14:47:35;;;;;;;31.95;13.25;;;;;;;4.93;100.00;98121.10;4229498;82;28700;-75
2021/01/21 14:53:37;;;;;;;27.87;13.70;;;;;;;4.85;100.00;98107.54;4225276;82;28695;-74
2021/01/21 14:59:40;;;;;;;29.10;13.72;;;;;;;4.62;100.00;98115.56;4240124;81;28692;-75
2021/01/21 15:05:43;;;;;;;27.50;13.50;;;;;;;4.37;100.00;98103.03;4277666;81;28570;-73
2021/01/21 15:11:45;;;;;;;27.48;13.60;;;;;;;4.02;100.00;98105.55;4257461;81;28619;-74
2021/01/21 15:17:48;;;;;;;24.18;11.38;;;;;;;3.75;100.00;98108.83;4261813;81;28685;-73
2021/01/21 15:23:50;;;;;;;26.12;12.50;;;;;;;3.55;100.00;98117.67;4251945;82;28584;-74
2021/01/21 15:29:52;;;;;;;24.85;11.73;;;;;;;3.22;100.00;98123.87;4253884;81;28590;-74
2021/01/21 15:35:54;;;;;;;27.07;13.05;;;;;;;3.00;100.00;98143.17;4256500;81;28604;-74
2021/01/21 15:41:57;;;;;;;18.52;7.65;;;;;;;2.86;100.00;98152.47;4209495;83;28589;-74
2021/01/21 15:47:59;;;;;;;14.10;5.70;;;;;;;2.86;100.00;98144.50;4285312;81;28670;-74
2021/01/21 15:54:02;;;;;;;22.60;8.58;;;;;;;2.82;100.00;98144.61;4257158;82;28573;-75
2021/01/21 16:00:30;;;;;;;24.02;11.48;;;;;;;2.45;100.00;98144.13;4193777;83;28657;-75
2021/01/21 16:06:37;;;;;;;19.90;9.40;;;;;;;2.06;100.00;98141.95;4171009;83;28690;-75
2021/01/21 16:12:40;;;;;;;14.35;6.70;;;;;;;1.85;100.00;98130.14;4189076;83;28619;-73
2021/01/21 16:18:42;;;;;;;17.05;6.75;;;;;;;1.77;100.00;98125.83;4177697;83;28551;-74
2021/01/21 16:24:46;;;;;;;12.58;6.00;;;;;;;1.76;100.00;98133.47;4178047;83;28612;-74
2021/01/21 16:30:50;;;;;;;14.80;6.92;;;;;;;1.67;100.00;98130.97;4185196;84;28548;-73
2021/01/21 16:36:52;;;;;;;15.50;7.03;;;;;;;1.57;100.00;98131.03;4185391;83;28589;-76
2021/01/21 16:42:54;;;;;;;19.57;7.55;;;;;;;1.39;100.00;98121.75;4168222;83;28675;-73
2021/01/21 16:48:57;;;;;;;17.20;7.50;;;;;;;1.46;100.00;98123.11;4176561;84;28622;-73
2021/01/21 16:55:00;;;;;;;17.85;7.20;;;;;;;1.32;100.00;98126.17;4224242;82;28634;-74
2021/01/21 17:01:04;;;;;;;15.72;7.17;;;;;;;1.20;100.00;98125.39;4318434;81;28659;-73
2021/01/21 17:07:07;;;;;;;15.05;7.50;;;;;;;1.20;100.00;98135.98;4326590;80;28602;-74
2021/01/21 17:13:09;;;;;;;16.75;7.37;;;;;;;1.21;100.00;98119.08;4328154;80;28611;-73
2021/01/21 17:19:12;;;;;;;20.08;8.25;;;;;;;0.92;100.00;98139.94;4322864;80;28641;-75
2021/01/21 17:25:15;;;;;;;20.35;9.53;;;;;;;1.01;100.00;98141.45;4316532;80;28636;-75
2021/01/21 17:31:17;;;;;;;18.00;8.65;;;;;;;1.02;100.00;98131.66;4304809;81;43970;-78
2021/01/21 17:37:19;;;;;;;20.05;8.00;;;;;;;0.96;100.00;98129.27;4291679;80;28627;-75
2021/01/21 17:43:21;;;;;;;22.13;8.98;;;;;;;0.78;100.00;98120.48;4328385;80;28537;-75
2021/01/21 17:49:23;;;;;;;20.17;8.68;;;;;;;0.54;100.00;98124.63;4329065;80;28553;-78
2021/01/21 17:55:27;;;;;;;19.98;9.08;;;;;;;0.51;100.00;98132.13;4299191;81;28695;-75
2021/01/21 18:01:29;;;;;;;17.52;8.30;;;;;;;0.47;100.00;98138.31;4309575;80;28572;-74
2021/01/21 18:07:33;;;;;;;19.60;9.88;;;;;;;0.32;100.00;98134.39;4308619;80;28570;-74
2021/01/21 18:13:36;;;;;;;23.77;10.40;;;;;;;0.25;100.00;98138.27;4312347;80;28659;-74
2021/01/21 18:19:39;;;;;;;18.90;9.65;;;;;;;0.19;100.00;98135.55;4291267;80;43942;-74
2021/01/21 18:25:42;;;;;;;25.32;11.10;;;;;;;0.29;100.00;98133.42;4329031;80;29453;-74
2021/01/21 18:31:44;;;;;;;25.88;10.45;;;;;;;0.20;100.00;98130.09;4205696;82;28569;-75
2021/01/21 18:37:47;;;;;;;22.85;10.15;;;;;;;-0.10;100.00;98126.18;4180752;83;44442;-74
2021/01/21 18:43:49;;;;;;;25.25;10.50;;;;;;;-0.22;100.00;98137.70;4163836;83;43222;-76
2021/01/21 18:49:51;;;;;;;21.97;9.98;;;;;;;-0.30;100.00;98141.27;4173802;83;44171;-72
2021/01/21 18:55:55;;;;;;;23.55;11.00;;;;;;;-0.30;100.00;98128.58;4166864;84;44483;-72
2021/01/21 19:01:58;;;;;;;23.98;11.48;;;;;;;-0.26;100.00;98131.66;4154235;83;43651;-73
2021/01/21 19:08:02;;;;;;;24.77;11.30;;;;;;;-0.17;100.00;98128.74;4174614;83;43698;-72
2021/01/21 19:14:05;;;;;;;24.50;10.58;;;;;;;-0.31;100.00;98130.39;4165725;83;42892;-73
2021/01/21 19:20:07;;;;;;;27.00;10.95;;;;;;;-0.69;100.00;98131.78;4160224;83;43319;-72
2021/01/21 19:26:09;;;;;;;23.12;10.90;;;;;;;-0.72;100.00;98132.98;4160196;83;44492;-72
2021/01/21 19:32:13;;;;;;;23.60;10.95;;;;;;;-0.71;100.00;98131.98;4173035;83;44462;-74
2021/01/21 19:38:16;;;;;;;22.42;11.22;;;;;;;-0.80;100.00;98121.67;4159906;84;44478;-75
2021/01/21 19:44:20;;;;;;;23.05;9.95;;;;;;;-0.80;100.00;98117.23;4158389;83;44499;-75
2021/01/21 19:50:23;;;;;;;31.73;13.62;;;;;;;-1.03;100.00;98121.23;4158769;84;44080;-72
2021/01/21 19:56:25;;;;;;;29.42;13.62;;;;;;;-0.94;100.00;98114.05;4158083;83;43425;-72
2021/01/21 20:02:28;;;;;;;30.45;13.22;;;;;;;-0.86;100.00;98097.66;4162239;83;43434;-72
2021/01/21 20:08:30;;;;;;;28.92;12.28;;;;;;;-0.98;100.00;98103.06;4165050;84;43430;-74
2021/01/21 20:14:32;;;;;;;32.55;14.15;;;;;;;-1.15;100.00;98097.92;4229755;82;44094;-72
2021/01/21 20:20:34;;;;;;;34.00;15.10;;;;;;;-1.11;100.00;98091.79;4225987;82;44192;-74
2021/01/21 20:26:37;;;;;;;35.90;15.38;;;;;;;-1.01;100.00;98095.48;4162514;84;44491;-74
2021/01/21 20:32:40;;;;;;;32.78;13.83;;;;;;;-0.96;100.00;98102.86;4179920;84;44111;-73
2021/01/21 20:38:42;;;;;;;27.67;11.55;;;;;;;-1.28;100.00;98100.35;4180428;83;43216;-73
2021/01/21 20:44:44;;;;;;;26.55;12.28;;;;;;;-1.31;100.00;98107.28;4172383;82;43113;-74
2021/01/21 20:50:47;;;;;;;27.07;12.15;;;;;;;-1.37;100.00;98106.17;4172304;84;43418;-74
2021/01/21 20:56:49;;;;;;;27.90;13.70;;;;;;;-1.35;100.00;98106.00;4227275;82;43389;-73
2021/01/21 21:02:52;;;;;;;29.63;13.70;;;;;;;-1.62;100.00;98106.36;4226768;82;43478;-75
2021/01/21 21:08:55;;;;;;;47.85;20.05;;;;;;;-1.61;100.00;98110.64;4160352;82;44059;-75
2021/01/21 21:14:57;;;;;;;46.30;19.82;;;;;;;-1.38;100.00;98106.37;4174717;83;43770;-75
2021/01/21 21:21:00;;;;;;;39.45;17.27;;;;;;;-1.49;100.00;98109.74;4217256;83;44428;-73
2021/01/21 21:27:02;;;;;;;44.33;18.87;;;;;;;-1.58;100.00;98121.34;4151348;84;43746;-76
2021/01/21 21:33:05;;;;;;;36.05;15.78;;;;;;;-1.58;100.00;98125.30;4178087;83;44486;-76
2021/01/21 21:39:08;;;;;;;35.63;14.33;;;;;;;-1.75;100.00;98121.95;4167196;83;44492;-74
2021/01/21 21:45:11;;;;;;;33.08;15.93;;;;;;;-1.54;100.00;98116.02;4158259;84;44127;-74
2021/01/21 21:51:14;;;;;;;36.80;16.07;;;;;;;-1.86;100.00;98119.20;4177443;83;44474;-74
2021/01/21 21:57:18;;;;;;;39.33;17.87;;;;;;;-1.85;100.00;98117.72;4154240;84;44440;-73
2021/01/21 22:03:20;;;;;;;38.28;17.23;;;;;;;-1.89;100.00;98111.13;4193372;82;44498;-74
2021/01/21 22:09:24;;;;;;;49.38;22.30;;;;;;;-1.91;100.00;98114.96;4150840;82;44441;-74
2021/01/21 22:15:26;;;;;;;33.65;15.45;;;;;;;-1.91;100.00;98102.59;4159225;84;44137;-75
2021/01/21 22:21:30;;;;;;;36.65;16.80;;;;;;;-2.13;100.00;98108.16;4148677;82;44527;-74
2021/01/21 22:27:32;;;;;;;41.37;17.48;;;;;;;-2.02;100.00;98107.77;4170270;83;44474;-76
2021/01/21 22:33:35;;;;;;;38.55;17.17;;;;;;;-1.99;100.00;98095.56;4179033;83;44465;-75
2021/01/21 22:39:38;;;;;;;42.08;17.37;;;;;;;-2.17;100.00;98094.99;4169649;84;44532;-76
2021/01/21 22:45:41;;;;;;;39.00;17.73;;;;;;;-2.02;100.00;98093.77;4166674;83;44582;-75
2021/01/21 22:51:43;;;;;;;38.73;16.57;;;;;;;-2.19;100.00;98082.50;4179393;83;44436;-76
2021/01/21 22:57:45;;;;;;;37.35;17.35;;;;;;;-2.17;100.00;98077.88;4200932;82;44465;-76
2021/01/21 23:03:48;;;;;;;33.75;15.45;;;;;;;-2.15;100.00;98066.18;4167866;82;44117;-76
2021/01/21 23:09:50;;;;;;;36.90;17.02;;;;;;;-2.35;100.00;98057.87;4170096;82;44439;-75
2021/01/21 23:15:53;;;;;;;37.53;17.23;;;;;;;-2.29;100.00;98055.05;4177324;82;44487;-74
2021/01/21 23:21:56;;;;;;;39.98;18.15;;;;;;;-2.27;100.00;98043.36;4193464;82;44472;-76
2021/01/21 23:27:58;;;;;;;42.13;17.75;;;;;;;-2.33;100.00;98035.33;4149572;84;44488;-73
2021/01/21 23:34:05;;;;;;;53.85;21.77;;;;;;;-2.40;100.00;98025.48;4190126;83;44101;-75
2021/01/21 23:40:08;;;;;;;39.38;17.67;;;;;;;-2.22;100.00;98011.23;4218218;82;44467;-75
2021/01/21 23:46:10;;;;;;;47.85;20.55;;;;;;;-2.22;100.00;98005.17;4325029;80;43758;-75
2021/01/21 23:52:13;;;;;;;38.28;18.27;;;;;;;-2.27;100.00;98001.22;4327504;80;44519;-75
2021/01/21 23:58:15;;;;;;;45.85;20.32;;;;;;;-2.20;100.00;97990.00;4335782;80;43759;-75
